createdAt,value
2019-01-16T00:00:49.369Z,91.70
2019-01-16T00:03:45.210Z,91.70
2019-01-16T00:06:32.091Z,91.70
2019-01-16T00:09:17.219Z,91.70
2019-01-16T00:12:08.043Z,91.80
2019-01-16T00:14:57.681Z,91.80
2019-01-16T00:17:50.140Z,91.80
2019-01-16T00:20:49.237Z,91.80
2019-01-16T00:23:41.839Z,91.80
2019-01-16T00:26:27.075Z,91.70
2019-01-16T00:29:10.397Z,91.70
2019-01-16T00:31:59.757Z,91.70
2019-01-16T00:34:45.008Z,91.70
2019-01-16T00:37:47.160Z,91.70
2019-01-16T00:40:25.734Z,91.80
2019-01-16T00:43:18.511Z,92.00
2019-01-16T00:46:03.981Z,92.10
2019-01-16T00:48:50.879Z,92.10
2019-01-16T00:51:36.436Z,92.10
2019-01-16T00:54:20.043Z,92.10
2019-01-16T00:57:12.470Z,92.20
2019-01-16T00:59:59.421Z,92.20
2019-01-16T01:02:55.199Z,92.30
2019-01-16T01:05:44.874Z,92.30
2019-01-16T01:08:33.310Z,92.30
2019-01-16T01:11:18.764Z,92.40
2019-01-16T01:14:17.839Z,92.50
2019-01-16T01:17:06.233Z,92.70
2019-01-16T01:19:57.203Z,92.80
2019-01-16T01:22:46.238Z,92.90
2019-01-16T01:25:31.737Z,93.00
2019-01-16T01:28:06.686Z,93.10
2019-01-16T01:30:53.577Z,93.10
2019-01-16T01:33:40.507Z,93.10
2019-01-16T01:36:25.815Z,93.20
2019-01-16T01:39:27.924Z,93.30
2019-01-16T01:42:15.666Z,93.50
2019-01-16T01:45:06.496Z,93.50
2019-01-16T01:47:52.068Z,93.60
2019-01-16T01:50:37.718Z,93.70
2019-01-16T01:53:22.390Z,93.70
2019-01-16T01:56:03.590Z,93.60
2019-01-16T01:58:49.634Z,93.60
2019-01-16T02:01:35.374Z,93.50
2019-01-16T02:04:34.420Z,93.50
2019-01-16T02:07:21.317Z,93.40
2019-01-16T02:10:00.297Z,93.30
2019-01-16T02:12:36.940Z,93.30
2019-01-16T02:15:28.228Z,93.20
2019-01-16T02:18:15.092Z,93.20
2019-01-16T02:20:59.949Z,93.20
2019-01-16T02:23:46.958Z,93.20
2019-01-16T02:26:52.091Z,93.20
2019-01-16T02:29:41.675Z,93.30
2019-01-16T02:32:30.469Z,93.30
2019-01-16T02:35:26.182Z,93.30
2019-01-16T02:38:10.622Z,93.30
2019-01-16T02:40:52.073Z,93.30
2019-01-16T02:43:47.702Z,93.30
2019-01-16T02:46:37.308Z,93.40
2019-01-16T02:49:19.351Z,93.40
2019-01-16T02:52:12.384Z,93.50
2019-01-16T02:54:59.260Z,93.60
2019-01-16T02:57:32.888Z,93.60
2019-01-16T03:00:11.933Z,93.70
2019-01-16T03:03:04.880Z,93.70
2019-01-16T03:05:44.864Z,93.70
2019-01-16T03:08:30.010Z,93.70
2019-01-16T03:11:25.996Z,93.80
2019-01-16T03:14:22.109Z,93.70
2019-01-16T03:16:56.630Z,93.80
2019-01-16T03:19:46.434Z,93.90
2019-01-16T03:22:31.032Z,94.00
2019-01-16T03:25:26.408Z,94.00
2019-01-16T03:28:17.618Z,94.10
2019-01-16T03:31:04.194Z,94.10
2019-01-16T03:33:59.858Z,94.10
2019-01-16T03:36:58.945Z,94.00
2019-01-16T03:39:47.263Z,94.00
2019-01-16T03:42:34.128Z,94.00
2019-01-16T03:45:11.124Z,94.00
2019-01-16T03:47:58.008Z,93.90
2019-01-16T03:50:44.380Z,93.80
2019-01-16T03:53:46.267Z,93.70
2019-01-16T03:56:37.822Z,93.70
2019-01-16T03:59:23.178Z,94.00
2019-01-16T04:02:18.685Z,93.60
2019-01-16T04:04:59.478Z,93.50
2019-01-16T04:07:44.448Z,93.50
2019-01-16T04:10:25.394Z,93.40
2019-01-16T04:13:19.575Z,93.30
2019-01-16T04:16:09.322Z,93.30
2019-01-16T04:18:51.380Z,93.30
2019-01-16T04:21:27.514Z,93.10
2019-01-16T04:24:13.482Z,93.10
2019-01-16T04:26:58.531Z,93.10
2019-01-16T04:29:52.140Z,93.10
2019-01-16T04:32:41.886Z,93.10
2019-01-16T04:35:31.908Z,93.10
2019-01-16T04:38:12.652Z,93.00
2019-01-16T04:40:59.870Z,93.00
2019-01-16T04:43:35.832Z,93.00
2019-01-16T04:46:14.694Z,92.90
2019-01-16T04:49:02.811Z,92.80
2019-01-16T04:51:55.476Z,92.70
2019-01-16T04:55:00.017Z,92.70
2019-01-16T04:57:38.706Z,92.60
2019-01-16T05:00:22.942Z,92.60
2019-01-16T05:03:12.385Z,92.40
2019-01-16T05:05:59.124Z,92.30
2019-01-16T05:08:44.736Z,92.20
2019-01-16T05:11:46.772Z,92.00
2019-01-16T05:14:24.917Z,91.90
2019-01-16T05:17:10.310Z,91.80
2019-01-16T05:19:55.903Z,91.70
2019-01-16T05:22:54.356Z,91.60
2019-01-16T05:25:31.868Z,91.60
2019-01-16T05:28:13.849Z,91.40
2019-01-16T05:31:15.674Z,91.40
2019-01-16T05:33:56.758Z,91.40
2019-01-16T05:36:41.187Z,91.20
2019-01-16T05:39:42.788Z,91.20
2019-01-16T05:42:25.100Z,91.10
2019-01-16T05:45:14.240Z,91.00
2019-01-16T05:48:19.030Z,90.90
2019-01-16T05:51:11.562Z,90.70
2019-01-16T05:54:04.256Z,90.70
2019-01-16T05:57:06.338Z,90.40
2019-01-16T05:59:53.224Z,90.30
2019-01-16T06:02:48.720Z,90.20
2019-01-16T06:05:38.780Z,90.10
2019-01-16T06:08:14.185Z,90.10
2019-01-16T06:11:07.217Z,89.80
2019-01-16T06:14:02.984Z,89.90
2019-01-16T06:16:48.672Z,89.80
2019-01-16T06:19:54.123Z,89.40
2019-01-16T06:22:42.482Z,89.40
2019-01-16T06:25:22.619Z,89.00
2019-01-16T06:28:08.182Z,89.00
2019-01-16T06:30:47.810Z,89.20
2019-01-16T06:33:44.013Z,89.30
2019-01-16T06:36:29.331Z,89.10
2019-01-16T06:39:13.033Z,89.00
2019-01-16T06:42:00.048Z,88.90
2019-01-16T06:44:46.247Z,88.50
2019-01-16T06:47:44.852Z,88.30
2019-01-16T06:50:37.526Z,87.60
2019-01-16T06:53:16.053Z,87.70
2019-01-16T06:56:01.612Z,87.40
2019-01-16T06:58:57.626Z,87.10
2019-01-16T07:01:53.332Z,86.80
2019-01-16T07:04:43.026Z,86.50
2019-01-16T07:07:18.772Z,85.90
2019-01-16T07:10:11.440Z,85.60
2019-01-16T07:12:56.736Z,85.40
2019-01-16T07:15:37.451Z,85.30
2019-01-16T07:18:23.023Z,85.00
2019-01-16T07:21:08.147Z,84.80
2019-01-16T07:23:55.093Z,84.90
2019-01-16T07:26:41.949Z,84.90
2019-01-16T07:29:27.347Z,84.50
2019-01-16T07:32:16.713Z,84.50
2019-01-16T07:35:18.765Z,84.50
2019-01-16T07:38:04.334Z,84.30
2019-01-16T07:41:00.119Z,84.30
2019-01-16T07:43:52.937Z,84.00
2019-01-16T07:46:44.783Z,83.90
2019-01-16T07:49:30.113Z,83.70
2019-01-16T07:52:28.671Z,83.90
2019-01-16T07:55:13.943Z,84.00
2019-01-16T07:58:03.631Z,84.10
2019-01-16T08:00:53.317Z,84.10
2019-01-16T08:03:47.031Z,84.10
2019-01-16T08:06:28.110Z,84.10
2019-01-16T08:09:10.941Z,84.20
2019-01-16T08:11:56.236Z,84.30
2019-01-16T08:14:41.779Z,84.50
2019-01-16T08:17:40.558Z,84.50
2019-01-16T08:20:26.463Z,84.50
2019-01-16T08:23:16.362Z,84.50
2019-01-16T08:26:09.037Z,84.40
2019-01-16T08:28:55.910Z,84.50
2019-01-16T08:31:35.414Z,84.30
2019-01-16T08:34:21.068Z,84.20
2019-01-16T08:37:08.288Z,84.00
2019-01-16T08:39:55.263Z,84.10
2019-01-16T08:42:48.033Z,83.80
2019-01-16T08:45:34.995Z,84.00
2019-01-16T08:48:25.014Z,84.00
2019-01-16T08:51:14.730Z,84.10
2019-01-16T08:54:00.110Z,84.00
2019-01-16T08:56:45.447Z,83.90
2019-01-16T08:59:47.524Z,84.10
2019-01-16T09:02:34.426Z,84.00
2019-01-16T09:05:36.232Z,84.10
2019-01-16T09:08:21.308Z,84.40
2019-01-16T09:11:19.346Z,84.30
2019-01-16T09:14:04.124Z,84.50
2019-01-16T09:16:49.646Z,84.30
2019-01-16T09:19:44.695Z,84.40
2019-01-16T09:22:37.457Z,84.30
2019-01-16T09:25:30.752Z,84.10
2019-01-16T09:28:26.401Z,84.10
2019-01-16T09:31:12.770Z,84.30
2019-01-16T09:33:58.053Z,84.20
2019-01-16T09:36:40.393Z,84.00
2019-01-16T09:39:18.552Z,84.00
2019-01-16T09:42:07.268Z,83.80
2019-01-16T09:45:03.028Z,83.90
2019-01-16T09:47:48.129Z,83.90
2019-01-16T09:50:37.556Z,83.70
2019-01-16T09:53:33.359Z,83.60
2019-01-16T09:56:18.714Z,83.70
2019-01-16T09:59:08.379Z,83.60
2019-01-16T10:02:10.321Z,83.70
2019-01-16T10:04:59.737Z,83.60
2019-01-16T10:07:54.880Z,83.20
2019-01-16T10:10:56.638Z,83.30
2019-01-16T10:13:44.880Z,83.40
2019-01-16T10:16:31.756Z,83.10
2019-01-16T10:19:09.907Z,83.10
2019-01-16T10:21:56.770Z,83.20
2019-01-16T10:25:01.667Z,83.20
2019-01-16T10:28:06.605Z,83.40
2019-01-16T10:31:02.722Z,83.40
2019-01-16T10:33:43.446Z,83.00
2019-01-16T10:36:37.489Z,82.90
2019-01-16T10:39:24.810Z,82.90
2019-01-16T10:42:10.928Z,83.00
2019-01-16T10:45:03.620Z,83.00
2019-01-16T10:47:46.134Z,82.80
2019-01-16T10:50:33.143Z,82.60
2019-01-16T10:53:35.910Z,82.40
2019-01-16T10:56:32.417Z,82.60
2019-01-16T10:59:17.523Z,82.50
2019-01-16T11:02:12.968Z,82.70
2019-01-16T11:04:58.529Z,82.80
2019-01-16T11:07:47.911Z,82.80
2019-01-16T11:10:37.556Z,83.00
2019-01-16T11:13:25.060Z,82.80
2019-01-16T11:16:11.614Z,83.00
2019-01-16T11:19:04.230Z,83.30
2019-01-16T11:21:49.536Z,83.30
2019-01-16T11:24:35.173Z,82.90
2019-01-16T11:27:20.195Z,83.10
2019-01-16T11:30:05.485Z,83.10
2019-01-16T11:32:50.573Z,83.20
2019-01-16T11:35:31.746Z,83.20
2019-01-16T11:38:21.401Z,83.10
2019-01-16T11:41:15.892Z,83.20
2019-01-16T11:44:05.542Z,83.50
2019-01-16T11:46:44.924Z,83.70
2019-01-16T11:49:29.979Z,83.70
2019-01-16T11:52:15.023Z,83.70
2019-01-16T11:55:01.889Z,83.60
2019-01-16T11:57:51.506Z,83.50
2019-01-16T12:00:47.379Z,83.50
2019-01-16T12:03:46.161Z,83.50
2019-01-16T12:06:22.424Z,83.70
2019-01-16T12:09:18.206Z,83.30
2019-01-16T12:12:00.767Z,83.40
2019-01-16T12:14:37.258Z,83.50
2019-01-16T12:17:22.518Z,83.40
2019-01-16T12:20:09.393Z,83.70
2019-01-16T12:23:05.180Z,83.80
2019-01-16T12:25:52.026Z,83.70
2019-01-16T12:28:37.678Z,83.60
2019-01-16T12:31:13.832Z,83.60
2019-01-16T12:33:59.085Z,83.30
2019-01-16T12:37:00.666Z,83.30
2019-01-16T12:39:36.178Z,83.50
2019-01-16T12:42:25.812Z,83.60
2019-01-16T12:45:11.328Z,83.60
2019-01-16T12:47:49.772Z,83.40
2019-01-16T12:50:33.097Z,83.20
2019-01-16T12:53:35.186Z,83.10
2019-01-16T12:56:23.244Z,83.00
2019-01-16T12:59:18.955Z,82.90
2019-01-16T13:02:20.538Z,83.00
2019-01-16T13:05:10.340Z,82.90
2019-01-16T13:07:57.236Z,82.90
2019-01-16T13:10:37.215Z,82.50
2019-01-16T13:13:25.341Z,82.80
2019-01-16T13:16:27.437Z,81.70
2019-01-16T13:19:32.504Z,81.80
2019-01-16T13:22:17.833Z,81.80
2019-01-16T13:24:58.161Z,82.00
2019-01-16T13:27:41.405Z,81.90
2019-01-16T13:30:28.205Z,81.90
2019-01-16T13:33:15.093Z,81.70
2019-01-16T13:35:54.829Z,81.30
2019-01-16T13:38:41.733Z,81.20
2019-01-16T13:41:27.211Z,81.00
2019-01-16T13:44:25.973Z,80.80
2019-01-16T13:47:09.006Z,80.80
2019-01-16T13:50:11.584Z,80.70
2019-01-16T13:53:07.487Z,80.60
2019-01-16T13:55:52.922Z,80.20
2019-01-16T13:58:38.999Z,80.10
2019-01-16T14:01:32.137Z,79.80
2019-01-16T14:04:11.663Z,79.00
2019-01-16T14:06:55.683Z,79.30
2019-01-16T14:09:33.217Z,79.10
2019-01-16T14:12:28.639Z,78.70
2019-01-16T14:15:07.237Z,78.80
2019-01-16T14:17:52.817Z,79.30
2019-01-16T14:20:39.689Z,79.40
2019-01-16T14:23:35.446Z,79.40
2019-01-16T14:26:21.337Z,79.60
2019-01-16T14:29:26.129Z,79.70
2019-01-16T14:32:11.705Z,80.20
2019-01-16T14:34:56.820Z,80.40
2019-01-16T14:37:52.318Z,80.70
2019-01-16T14:40:30.347Z,80.70
2019-01-16T14:43:16.122Z,80.90
2019-01-16T14:46:12.160Z,80.90
2019-01-16T14:48:47.879Z,81.10
2019-01-16T14:51:50.686Z,81.30
2019-01-16T14:54:36.070Z,81.50
2019-01-16T14:57:23.686Z,81.60
2019-01-16T15:00:10.576Z,81.60
2019-01-16T15:02:55.892Z,81.90
2019-01-16T15:05:31.522Z,82.00
2019-01-16T15:08:18.350Z,82.00
2019-01-16T15:10:55.858Z,82.10
2019-01-16T15:13:36.795Z,82.10
2019-01-16T15:16:32.472Z,82.20
2019-01-16T15:19:25.191Z,82.20
2019-01-16T15:22:30.608Z,82.10
2019-01-16T15:25:05.630Z,81.90
2019-01-16T15:28:10.392Z,82.00
2019-01-16T15:31:09.140Z,82.10
2019-01-16T15:34:11.005Z,82.20
2019-01-16T15:36:57.878Z,82.40
2019-01-16T15:39:43.225Z,82.60
2019-01-16T15:42:30.118Z,82.80
2019-01-16T15:45:17.007Z,83.10
2019-01-16T15:47:54.005Z,83.20
2019-01-16T15:50:40.856Z,83.40
2019-01-16T15:53:19.747Z,83.40
2019-01-16T15:56:09.661Z,83.60
2019-01-16T15:58:51.081Z,83.50
2019-01-16T16:01:36.321Z,83.60
2019-01-16T16:04:23.449Z,83.50
2019-01-16T16:07:08.843Z,83.30
2019-01-16T16:09:55.816Z,83.20
2019-01-16T16:12:38.947Z,83.10
2019-01-16T16:15:28.561Z,83.00
2019-01-16T16:18:24.321Z,83.00
2019-01-16T16:21:20.400Z,83.70
2019-01-16T16:24:13.164Z,82.90
2019-01-16T16:27:03.039Z,82.90
2019-01-16T16:29:55.736Z,83.20
2019-01-16T16:32:42.589Z,83.30
2019-01-16T16:35:32.300Z,83.60
2019-01-16T16:38:17.576Z,83.90
2019-01-16T16:41:14.074Z,84.20
2019-01-16T16:44:02.381Z,84.50
2019-01-16T16:46:49.214Z,84.70
2019-01-16T16:49:36.097Z,84.90
2019-01-16T16:52:27.541Z,85.00
2019-01-16T16:55:06.238Z,85.20
2019-01-16T16:57:49.805Z,85.20
2019-01-16T17:00:39.734Z,85.20
2019-01-16T17:03:25.419Z,85.20
2019-01-16T17:06:11.021Z,85.30
2019-01-16T17:09:03.469Z,85.40
2019-01-16T17:11:49.136Z,85.50
2019-01-16T17:14:44.065Z,85.70
2019-01-16T17:17:20.309Z,85.80
2019-01-16T17:20:05.909Z,85.70
2019-01-16T17:22:55.624Z,85.50
2019-01-16T17:25:48.622Z,85.40
2019-01-16T17:28:47.484Z,85.20
2019-01-16T17:31:25.926Z,85.10
2019-01-16T17:34:13.820Z,84.60
2019-01-16T17:36:59.194Z,84.50
2019-01-16T17:39:44.308Z,84.40
2019-01-16T17:42:37.207Z,84.50
2019-01-16T17:45:36.693Z,84.70
2019-01-16T17:48:15.239Z,84.70
2019-01-16T17:51:00.689Z,85.00
2019-01-16T17:53:48.730Z,85.10
2019-01-16T17:56:47.594Z,85.30
2019-01-16T17:59:32.816Z,85.50
2019-01-16T18:02:09.765Z,85.60
2019-01-16T18:04:53.726Z,85.80
2019-01-16T18:07:33.223Z,86.00
2019-01-16T18:10:14.301Z,86.10
2019-01-16T18:13:01.246Z,86.20
2019-01-16T18:15:48.402Z,86.80
2019-01-16T18:18:30.697Z,86.00
2019-01-16T18:21:20.618Z,85.80
2019-01-16T18:24:02.786Z,85.60
2019-01-16T18:26:49.668Z,85.30
2019-01-16T18:29:36.664Z,85.20
2019-01-16T18:32:29.420Z,85.10
2019-01-16T18:35:15.140Z,85.10
2019-01-16T18:38:09.150Z,85.10
2019-01-16T18:40:49.158Z,85.00
2019-01-16T18:43:34.236Z,85.10
2019-01-16T18:46:17.936Z,85.20
2019-01-16T18:49:03.871Z,85.20
2019-01-16T18:51:50.784Z,85.20
2019-01-16T18:54:42.330Z,85.20
2019-01-16T18:57:22.404Z,85.30
2019-01-16T19:00:02.420Z,85.40
2019-01-16T19:03:01.268Z,85.60
2019-01-16T19:05:59.846Z,85.70
2019-01-16T19:08:49.575Z,85.90
2019-01-16T19:11:42.246Z,86.00
2019-01-16T19:14:34.881Z,86.20
2019-01-16T19:17:20.366Z,86.30
2019-01-16T19:20:05.550Z,86.40
2019-01-16T19:22:58.193Z,86.50
2019-01-16T19:25:47.336Z,86.50
2019-01-16T19:28:34.214Z,86.50
2019-01-16T19:31:21.118Z,86.50
2019-01-16T19:33:55.213Z,86.50
2019-01-16T19:36:41.029Z,86.50
2019-01-16T19:39:33.692Z,86.50
2019-01-16T19:42:21.311Z,86.50
2019-01-16T19:45:09.837Z,86.40
2019-01-16T19:47:51.181Z,86.40
2019-01-16T19:50:55.736Z,86.20
2019-01-16T19:53:47.941Z,85.90
2019-01-16T19:56:40.470Z,85.80
2019-01-16T19:59:18.935Z,85.70
2019-01-16T20:02:05.915Z,85.60
2019-01-16T20:04:49.870Z,85.50
2019-01-16T20:07:51.662Z,85.10
2019-01-16T20:10:41.072Z,84.80
2019-01-16T20:13:27.353Z,84.80
2019-01-16T20:16:19.733Z,84.70
2019-01-16T20:19:09.511Z,84.70
2019-01-16T20:22:08.269Z,84.40
2019-01-16T20:25:04.191Z,84.00
2019-01-16T20:27:55.557Z,83.80
2019-01-16T20:30:38.789Z,83.70
2019-01-16T20:33:23.854Z,83.80
2019-01-16T20:36:13.750Z,84.00
2019-01-16T20:39:00.645Z,83.90
2019-01-16T20:41:53.183Z,84.00
2019-01-16T20:44:40.672Z,83.90
2019-01-16T20:47:33.289Z,83.60
2019-01-16T20:50:29.105Z,83.60
2019-01-16T20:53:06.245Z,83.70
2019-01-16T20:55:51.657Z,83.80
2019-01-16T20:58:44.297Z,83.90
2019-01-16T21:01:33.829Z,83.90
2019-01-16T21:04:23.449Z,83.90
2019-01-16T21:07:00.910Z,84.00
2019-01-16T21:09:50.786Z,83.70
2019-01-16T21:12:38.761Z,83.80
2019-01-16T21:15:24.012Z,83.70
2019-01-16T21:18:09.588Z,83.70
2019-01-16T21:21:02.100Z,83.60
2019-01-16T21:23:43.039Z,83.70
2019-01-16T21:26:28.329Z,83.60
2019-01-16T21:29:05.573Z,83.50
2019-01-16T21:31:58.042Z,83.40
2019-01-16T21:35:03.196Z,83.50
2019-01-16T21:37:48.851Z,83.50
2019-01-16T21:40:39.494Z,83.50
2019-01-16T21:43:40.995Z,83.60
2019-01-16T21:46:26.161Z,83.70
2019-01-16T21:49:16.077Z,83.60
2019-01-16T21:52:05.569Z,83.80
2019-01-16T21:54:55.783Z,83.80
2019-01-16T21:57:54.504Z,83.80
2019-01-16T22:00:47.234Z,84.00
2019-01-16T22:03:32.513Z,84.30
2019-01-16T22:06:27.932Z,84.50
2019-01-16T22:09:15.323Z,84.70
2019-01-16T22:12:09.301Z,84.80
2019-01-16T22:15:08.310Z,84.80
2019-01-16T22:17:55.544Z,85.00
2019-01-16T22:20:33.467Z,85.00
2019-01-16T22:23:26.206Z,84.90
2019-01-16T22:26:12.105Z,84.80
2019-01-16T22:28:59.039Z,84.80
2019-01-16T22:31:35.415Z,84.80
2019-01-16T22:34:28.211Z,84.80
2019-01-16T22:37:13.581Z,84.80
2019-01-16T22:39:58.867Z,84.70
2019-01-16T22:42:45.730Z,84.80
2019-01-16T22:45:35.807Z,84.80
2019-01-16T22:48:22.918Z,84.70
2019-01-16T22:51:02.715Z,84.60
2019-01-16T22:53:43.398Z,84.80
2019-01-16T22:56:27.739Z,84.70
2019-01-16T22:59:03.983Z,84.70
2019-01-16T23:02:06.044Z,84.90
2019-01-16T23:04:52.632Z,84.80
2019-01-16T23:07:42.321Z,84.80
2019-01-16T23:10:27.644Z,84.90
2019-01-16T23:13:20.604Z,84.80
2019-01-16T23:16:19.162Z,84.90
2019-01-16T23:19:00.472Z,84.90
2019-01-16T23:21:45.785Z,85.10
2019-01-16T23:24:35.176Z,85.20
2019-01-16T23:27:23.904Z,85.30
2019-01-16T23:30:16.529Z,85.50
2019-01-16T23:32:56.692Z,85.50
2019-01-16T23:35:43.562Z,85.50
2019-01-16T23:38:38.956Z,85.50
2019-01-16T23:41:31.656Z,85.50
2019-01-16T23:44:28.268Z,85.50
2019-01-16T23:47:27.100Z,85.60
2019-01-16T23:50:12.092Z,86.00
2019-01-16T23:53:11.164Z,86.10
2019-01-16T23:55:56.503Z,86.20
2019-01-16T23:58:36.797Z,86.30
